Time;durP1;ratioP1;P1;durP2;ratioP2;P2;SDS_P1;SDS_P2;PMS_P1;PMS_P2;Temp;Humidity;BMP_temperature;BMP_pressure;BME280_temperature;BME280_humidity;BME280_pressure;Samples;Min_cycle;Max_cycle;Signal;HPM_P1;HPM_P2
2022/05/11 00:01:58;;;;;;;2.70;2.00;;;25.00;46.80;;;;;;5020267;28;20033;-63
2022/05/11 00:04:24;;;;;;;3.10;2.17;;;25.00;46.80;;;;;;5018124;28;20037;-60
2022/05/11 00:06:50;;;;;;;2.83;2.10;;;25.00;46.80;;;;;;5018400;28;20397;-60
2022/05/11 00:09:17;;;;;;;2.88;2.10;;;25.00;46.80;;;;;;5017086;28;20591;-63
2022/05/11 00:11:43;;;;;;;2.88;2.00;;;25.00;46.80;;;;;;5019836;28;20300;-64
2022/05/11 00:14:09;;;;;;;3.28;2.22;;;25.00;46.80;;;;;;5000513;28;20105;-63
2022/05/11 00:16:35;;;;;;;3.08;2.25;;;25.00;46.80;;;;;;5017251;28;20037;-62
2022/05/11 00:19:02;;;;;;;3.17;2.03;;;25.00;46.80;;;;;;5016848;28;20025;-64
2022/05/11 00:21:27;;;;;;;3.42;2.20;;;25.00;46.80;;;;;;5018571;28;20497;-61
2022/05/11 00:23:53;;;;;;;2.45;1.70;;;24.90;46.80;;;;;;5019766;28;20067;-64
2022/05/11 00:26:20;;;;;;;2.22;1.83;;;24.90;46.80;;;;;;5019274;28;20036;-59
2022/05/11 00:28:46;;;;;;;2.90;2.00;;;24.90;46.90;;;;;;5018372;28;20041;-64
2022/05/11 00:31:12;;;;;;;2.40;1.90;;;24.90;46.90;;;;;;5015085;28;20109;-63
2022/05/11 00:33:38;;;;;;;2.85;2.13;;;24.90;46.90;;;;;;5020284;28;20036;-65
2022/05/11 00:36:11;;;;;;;3.15;2.20;;;24.80;46.90;;;;;;5014965;28;20421;-63
2022/05/11 00:38:37;;;;;;;2.83;2.10;;;24.90;47.40;;;;;;5015852;28;20675;-62
2022/05/11 00:41:03;;;;;;;2.92;2.00;;;24.80;46.90;;;;;;5018743;28;20041;-64
2022/05/11 00:43:38;;;;;;;3.13;2.05;;;24.80;46.90;;;;;;5018667;28;20377;-64
2022/05/11 00:46:20;;;;;;;2.78;2.00;;;24.80;46.90;;;;;;5017122;28;20025;-63
2022/05/11 00:51:39;;;;;;;;;;;24.80;47.00;;;;;;5017763;28;20131;-63
2022/05/11 00:54:05;;;;;;;;;;;24.80;47.00;;;;;;5017573;28;20083;-64
2022/05/11 00:56:33;;;;;;;3.20;1.85;;;24.80;47.00;;;;;;5017339;28;20055;-64
2022/05/11 00:59:05;;;;;;;2.75;1.88;;;24.80;47.00;;;;;;5019465;28;20119;-64
2022/05/11 01:01:31;;;;;;;2.53;1.80;;;24.80;47.60;;;;;;5019490;28;20041;-61
2022/05/11 01:04:12;;;;;;;3.05;1.90;;;24.70;47.00;;;;;;5015810;28;20109;-63
2022/05/11 01:06:40;;;;;;;2.63;1.88;;;24.70;47.10;;;;;;5017670;28;20536;-64
2022/05/11 01:09:06;;;;;;;2.85;1.92;;;24.70;47.20;;;;;;5016757;28;20032;-63
2022/05/11 01:11:36;;;;;;;2.55;1.67;;;24.70;47.10;;;;;;5019926;28;20397;-60
2022/05/11 01:14:04;;;;;;;3.60;1.88;;;24.70;47.10;;;;;;5017046;28;20410;-63
2022/05/11 01:16:30;;;;;;;2.63;1.92;;;24.70;47.20;;;;;;5016996;28;20029;-59
2022/05/11 01:18:57;;;;;;;2.38;1.80;;;24.60;47.10;;;;;;5015413;28;20046;-64
2022/05/11 01:21:34;;;;;;;2.50;1.73;;;24.60;47.20;;;;;;5017892;28;20120;-61
2022/05/11 01:24:30;;;;;;;3.10;1.83;;;24.60;47.20;;;;;;5018077;28;20029;-64
2022/05/11 01:26:56;;;;;;;2.70;1.90;;;24.60;47.20;;;;;;5017552;28;20029;-64
2022/05/11 01:29:22;;;;;;;3.05;1.92;;;24.60;47.20;;;;;;5012023;28;20029;-63
2022/05/11 01:31:48;;;;;;;2.50;1.80;;;24.60;47.30;;;;;;5016446;28;20042;-63
2022/05/11 01:34:22;;;;;;;2.78;1.85;;;24.50;47.20;;;;;;5016015;28;20032;-63
2022/05/11 01:36:50;;;;;;;2.60;1.90;;;24.50;47.20;;;;;;5016244;28;20029;-63
2022/05/11 01:39:16;;;;;;;3.17;1.98;;;24.50;47.20;;;;;;5019143;28;20121;-63
2022/05/11 01:41:49;;;;;;;2.53;1.80;;;24.50;47.30;;;;;;5020436;28;20109;-61
2022/05/11 01:44:17;;;;;;;2.63;1.85;;;24.60;47.30;;;;;;5021241;28;20543;-63
2022/05/11 01:46:48;;;;;;;3.53;2.20;;;24.50;47.40;;;;;;5012121;28;20036;-62
2022/05/11 01:49:14;;;;;;;2.50;1.80;;;24.50;47.30;;;;;;5020355;28;20187;-63
2022/05/11 01:51:40;;;;;;;2.67;1.83;;;24.50;47.30;;;;;;5022893;28;20076;-64
2022/05/11 01:54:06;;;;;;;2.70;1.90;;;24.50;47.30;;;;;;5019969;28;20129;-64
2022/05/11 01:56:32;;;;;;;2.50;1.75;;;24.50;47.40;;;;;;5021747;28;20025;-64
2022/05/11 01:58:57;;;;;;;2.90;1.98;;;24.50;47.90;;;;;;5023944;28;20430;-63
2022/05/11 02:01:26;;;;;;;3.05;2.08;;;24.50;47.90;;;;;;5020344;28;20382;-64
2022/05/11 02:03:52;;;;;;;2.67;1.80;;;24.40;47.40;;;;;;5019164;28;20064;-64
2022/05/11 02:09:04;;;;;;;2.25;1.80;;;24.40;47.40;;;;;;5021182;28;20040;-63
2022/05/11 02:11:30;;;;;;;3.05;1.98;;;24.40;47.40;;;;;;5019254;28;20025;-63
2022/05/11 02:13:57;;;;;;;2.45;2.00;;;24.40;47.40;;;;;;5021765;28;20404;-64
2022/05/11 02:16:23;;;;;;;2.45;1.73;;;24.40;47.40;;;;;;5020085;28;20124;-63
2022/05/11 02:18:49;;;;;;;2.65;1.88;;;24.40;47.40;;;;;;5016328;28;20038;-63
2022/05/11 02:21:14;;;;;;;2.85;1.90;;;24.40;47.40;;;;;;5019390;28;20453;-61
2022/05/11 02:23:40;;;;;;;2.50;1.90;;;24.40;47.40;;;;;;5019530;28;20347;-63
2022/05/11 02:26:11;;;;;;;2.80;1.90;;;24.40;47.40;;;;;;5022078;28;20043;-60
2022/05/11 02:28:38;;;;;;;2.65;1.80;;;24.40;47.40;;;;;;5021209;28;20978;-64
2022/05/11 02:31:04;;;;;;;2.83;2.08;;;24.40;47.40;;;;;;5022322;28;20453;-61
2022/05/11 02:33:30;;;;;;;2.95;2.08;;;24.40;47.40;;;;;;5018064;28;20497;-64
2022/05/11 02:35:56;;;;;;;2.25;1.73;;;24.30;47.40;;;;;;5017628;28;20033;-61
2022/05/11 02:38:28;;;;;;;2.78;1.90;;;24.40;47.40;;;;;;5012068;28;20026;-60
2022/05/11 02:40:54;;;;;;;3.22;2.00;;;24.30;47.40;;;;;;5021062;28;20453;-63
2022/05/11 02:43:20;;;;;;;2.67;1.88;;;24.30;47.40;;;;;;5020113;28;20029;-64
2022/05/11 02:45:47;;;;;;;2.70;2.08;;;24.30;47.40;;;;;;5021632;28;20037;-62
2022/05/11 02:48:15;;;;;;;3.22;2.00;;;24.30;47.40;;;;;;5019113;28;20571;-64
2022/05/11 02:50:47;;;;;;;2.80;1.92;;;24.30;47.40;;;;;;5020729;28;20064;-64
2022/05/11 02:53:14;;;;;;;3.15;2.13;;;24.30;47.40;;;;;;5020709;28;20342;-64
2022/05/11 02:55:47;;;;;;;2.78;1.80;;;24.30;47.40;;;;;;5018615;28;20244;-64
2022/05/11 02:58:15;;;;;;;2.40;2.00;;;24.30;47.40;;;;;;5020811;28;20462;-63
2022/05/11 03:00:44;;;;;;;2.38;1.88;;;24.30;48.00;;;;;;5020768;28;20033;-64
2022/05/11 03:03:11;;;;;;;3.10;1.95;;;24.30;47.40;;;;;;5020674;28;20041;-65
2022/05/11 03:05:38;;;;;;;2.42;1.85;;;24.30;47.40;;;;;;5017159;28;20120;-61
2022/05/11 03:08:04;;;;;;;2.83;1.95;;;24.30;47.50;;;;;;5017095;28;20136;-63
2022/05/11 03:10:30;;;;;;;2.53;1.90;;;24.30;47.50;;;;;;5021104;28;20039;-60
2022/05/11 03:12:56;;;;;;;2.80;1.90;;;24.30;48.00;;;;;;5020548;28;20033;-64
2022/05/11 03:15:22;;;;;;;3.58;2.03;;;24.30;47.50;;;;;;5020262;28;20044;-64
2022/05/11 03:17:48;;;;;;;2.65;1.95;;;24.30;47.50;;;;;;5019911;28;20033;-63
2022/05/11 03:20:13;;;;;;;2.83;2.00;;;24.30;47.40;;;;;;5016090;28;20032;-64
2022/05/11 03:22:39;;;;;;;2.65;1.92;;;24.30;47.40;;;;;;5022048;28;20059;-64
2022/05/11 03:25:06;;;;;;;2.78;1.90;;;24.30;47.40;;;;;;5019691;28;20038;-63
2022/05/11 03:27:32;;;;;;;2.55;1.98;;;24.30;47.50;;;;;;5023218;28;20509;-64
2022/05/11 03:29:57;;;;;;;3.08;2.05;;;24.20;47.40;;;;;;5021354;28;20060;-62
2022/05/11 03:35:09;;;;;;;2.88;2.15;;;24.30;47.50;;;;;;5015804;28;20099;-61
2022/05/11 03:37:35;;;;;;;2.78;2.00;;;24.20;47.40;;;;;;5019061;28;20036;-64
2022/05/11 03:40:03;;;;;;;2.67;1.90;;;24.20;47.40;;;;;;5018128;28;20025;-60
2022/05/11 03:42:32;;;;;;;2.65;1.90;;;24.20;47.40;;;;;;5019875;28;20033;-64
2022/05/11 03:45:27;;;;;;;2.40;1.90;;;24.20;47.40;;;;;;5018501;28;20456;-61
2022/05/11 03:47:53;;;;;;;2.90;2.00;;;24.20;47.40;;;;;;5006422;28;20111;-63
2022/05/11 03:50:22;;;;;;;2.90;2.00;;;24.20;47.40;;;;;;5015498;28;20033;-62
2022/05/11 03:52:48;;;;;;;2.90;2.08;;;24.20;47.50;;;;;;5018061;28;20051;-63
2022/05/11 03:55:14;;;;;;;2.72;2.00;;;24.20;47.50;;;;;;5018655;28;20032;-63
2022/05/11 03:57:41;;;;;;;2.35;1.70;;;24.20;47.50;;;;;;5018651;28;20029;-63
2022/05/11 04:00:11;;;;;;;2.85;1.90;;;24.20;47.50;;;;;;5018736;28;20029;-59
2022/05/11 04:02:37;;;;;;;2.13;1.77;;;24.20;47.50;;;;;;5019653;28;20047;-62
2022/05/11 04:05:03;;;;;;;2.78;1.90;;;24.20;48.00;;;;;;5018308;28;20117;-63
2022/05/11 04:07:29;;;;;;;2.42;1.88;;;24.20;47.50;;;;;;5017282;28;20109;-63
2022/05/11 04:09:55;;;;;;;3.13;1.95;;;24.10;47.50;;;;;;5016874;28;20125;-63
2022/05/11 04:12:23;;;;;;;3.65;2.10;;;24.20;47.50;;;;;;5017819;28;20485;-65
2022/05/11 04:14:49;;;;;;;2.72;1.90;;;24.20;47.60;;;;;;5018795;28;20021;-62
2022/05/11 04:17:14;;;;;;;2.63;1.83;;;24.20;47.50;;;;;;5017941;28;20041;-64
2022/05/11 04:19:40;;;;;;;2.63;1.80;;;24.20;47.60;;;;;;5019876;28;20041;-65
2022/05/11 04:22:06;;;;;;;2.60;1.70;;;24.10;47.50;;;;;;5015222;28;20018;-64
2022/05/11 04:24:31;;;;;;;2.42;1.80;;;24.20;47.50;;;;;;5020712;28;20406;-63
2022/05/11 04:26:58;;;;;;;2.70;1.88;;;24.10;47.50;;;;;;5016940;28;20032;-64
2022/05/11 04:29:24;;;;;;;2.55;1.90;;;24.10;47.60;;;;;;5019563;28;20040;-64
2022/05/11 04:31:54;;;;;;;2.78;2.10;;;24.10;47.60;;;;;;5018557;28;20521;-63
2022/05/11 04:34:20;;;;;;;2.40;1.80;;;24.10;47.60;;;;;;5014181;28;20029;-64
2022/05/11 04:36:46;;;;;;;3.45;2.05;;;24.10;47.60;;;;;;5017352;28;20401;-63
2022/05/11 04:39:12;;;;;;;2.80;1.85;;;24.10;47.60;;;;;;5018830;28;20033;-63
2022/05/11 04:41:37;;;;;;;2.60;1.95;;;24.10;47.60;;;;;;5020061;28;20025;-63
2022/05/11 04:44:03;;;;;;;2.15;1.70;;;24.10;48.10;;;;;;5021121;28;20459;-60
2022/05/11 04:46:29;;;;;;;2.33;1.80;;;24.10;47.60;;;;;;5016424;28;20470;-63
2022/05/11 04:49:16;;;;;;;2.30;1.73;;;24.10;47.60;;;;;;5016662;28;20505;-61
2022/05/11 04:51:40;;;;;;;2.90;1.80;;;24.10;47.60;;;;;;5016076;28;20124;-64
2022/05/11 04:54:06;;;;;;;2.70;2.00;;;24.10;47.60;;;;;;5015348;28;20094;-63
2022/05/11 04:56:32;;;;;;;2.75;1.85;;;24.10;47.60;;;;;;5015257;28;20657;-63
2022/05/11 04:58:58;;;;;;;2.75;1.90;;;24.10;47.60;;;;;;5013509;28;20494;-64
2022/05/11 05:01:25;;;;;;;2.58;1.80;;;24.10;47.60;;;;;;5018522;28;20291;-63
2022/05/11 05:03:51;;;;;;;2.63;1.98;;;24.10;47.60;;;;;;5014124;28;20041;-64
2022/05/11 05:06:16;;;;;;;2.90;2.22;;;24.10;47.60;;;;;;5017829;28;20104;-65
2022/05/11 05:08:43;;;;;;;2.45;1.90;;;24.10;47.60;;;;;;5016033;28;20038;-64
2022/05/11 05:11:08;;;;;;;2.67;1.80;;;24.00;47.60;;;;;;5016631;28;20285;-63
2022/05/11 05:13:34;;;;;;;2.67;2.00;;;24.00;47.50;;;;;;5018291;28;20037;-64
2022/05/11 05:15:59;;;;;;;2.85;2.05;;;24.10;47.60;;;;;;5016295;28;20266;-64
2022/05/11 05:18:25;;;;;;;2.50;1.80;;;24.00;47.50;;;;;;5015584;28;20216;-62
2022/05/11 05:20:53;;;;;;;2.20;1.60;;;24.00;47.50;;;;;;5019307;28;20037;-63
2022/05/11 05:23:18;;;;;;;2.60;1.98;;;24.10;47.80;;;;;;5024288;28;20163;-63
2022/05/11 05:25:44;;;;;;;2.60;2.00;;;24.10;47.60;;;;;;5021200;28;20404;-63
2022/05/11 05:31:06;;;;;;;2.90;2.25;;;24.40;47.40;;;;;;5021087;28;20121;-61
2022/05/11 05:33:34;;;;;;;2.60;1.90;;;24.50;47.40;;;;;;5021808;28;20303;-65
2022/05/11 05:36:00;;;;;;;2.95;1.90;;;24.50;46.90;;;;;;5021326;28;20394;-64
2022/05/11 05:38:27;;;;;;;2.67;1.80;;;24.60;46.80;;;;;;5020082;28;20111;-63
2022/05/11 05:40:54;;;;;;;2.50;1.80;;;24.70;46.90;;;;;;5021529;28;20033;-65
2022/05/11 05:43:20;;;;;;;1.98;1.50;;;24.80;46.70;;;;;;5022409;28;20099;-64
2022/05/11 05:45:51;;;;;;;2.10;1.60;;;24.80;46.60;;;;;;5020770;28;20033;-63
2022/05/11 05:48:19;;;;;;;2.40;1.70;;;24.80;46.60;;;;;;5017884;28;20555;-64
2022/05/11 05:50:45;;;;;;;2.27;1.77;;;24.80;46.60;;;;;;5021514;28;20025;-61
2022/05/11 05:53:12;;;;;;;2.65;1.80;;;24.80;46.60;;;;;;5023415;28;20299;-64
2022/05/11 05:55:38;;;;;;;2.50;1.58;;;24.80;46.50;;;;;;5021875;28;20061;-64
2022/05/11 05:58:03;;;;;;;2.45;1.75;;;24.80;46.50;;;;;;5019625;28;20057;-63
2022/05/11 06:00:30;;;;;;;2.75;1.98;;;24.80;46.50;;;;;;5018741;28;20060;-63
2022/05/11 06:02:56;;;;;;;2.70;1.90;;;24.80;46.50;;;;;;5020378;28;20041;-63
2022/05/11 06:05:22;;;;;;;2.65;1.70;;;24.80;46.40;;;;;;5020133;28;20026;-61
2022/05/11 06:07:48;;;;;;;2.60;1.90;;;24.90;46.40;;;;;;5020507;28;20037;-63
2022/05/11 06:10:13;;;;;;;2.58;1.83;;;24.90;46.40;;;;;;5020532;28;20110;-64
2022/05/11 06:12:39;;;;;;;2.33;1.77;;;24.90;46.40;;;;;;5019182;28;20060;-63
2022/05/11 06:15:06;;;;;;;2.30;1.60;;;24.90;46.40;;;;;;5021450;28;20119;-64
2022/05/11 06:17:32;;;;;;;2.22;1.70;;;24.90;46.30;;;;;;5023753;28;20033;-65
2022/05/11 06:19:58;;;;;;;2.20;1.60;;;25.00;46.40;;;;;;5020669;28;20026;-64
2022/05/11 06:22:27;;;;;;;2.28;1.63;;;25.00;46.30;;;;;;5020758;28;20034;-64
2022/05/11 06:24:52;;;;;;;2.30;1.52;;;25.00;46.30;;;;;;5019208;28;20120;-61
2022/05/11 06:27:21;;;;;;;2.60;1.63;;;25.00;46.30;;;;;;5025954;28;20136;-64
2022/05/11 06:29:55;;;;;;;2.30;1.60;;;25.10;46.40;;;;;;5024150;28;20037;-65
2022/05/11 06:32:22;;;;;;;3.28;2.05;;;25.10;46.40;;;;;;5024652;28;20580;-64
2022/05/11 06:34:48;;;;;;;2.65;1.90;;;25.10;46.40;;;;;;5020867;28;20045;-62
2022/05/11 06:37:15;;;;;;;2.28;1.77;;;25.10;46.30;;;;;;5022473;28;20539;-64
2022/05/11 06:39:40;;;;;;;2.47;1.83;;;25.10;46.20;;;;;;5021130;28;20071;-61
2022/05/11 06:42:08;;;;;;;2.55;2.08;;;25.10;46.20;;;;;;5022182;28;20087;-62
2022/05/11 06:44:34;;;;;;;2.60;1.70;;;25.10;46.20;;;;;;5020843;28;20041;-60
2022/05/11 06:46:59;;;;;;;2.33;1.70;;;25.10;46.20;;;;;;5021177;28;20537;-60
2022/05/11 06:49:25;;;;;;;2.30;1.80;;;25.20;46.20;;;;;;5020650;28;20036;-63
2022/05/11 06:51:51;;;;;;;2.97;1.83;;;25.10;46.20;;;;;;5022191;28;20397;-62
2022/05/11 06:59:45;;;;;;;2.30;1.70;;;25.20;46.20;;;;;;5022193;28;20113;-62
2022/05/11 07:02:10;;;;;;;2.35;1.90;;;25.20;46.30;;;;;;5020877;28;20096;-62
2022/05/11 07:04:37;;;;;;;2.33;1.70;;;25.20;46.30;;;;;;5020263;28;20040;-64
2022/05/11 07:07:05;;;;;;;2.75;2.03;;;25.30;46.30;;;;;;5025745;28;20128;-62
2022/05/11 07:09:33;;;;;;;3.00;1.60;;;25.20;46.20;;;;;;5022894;28;20034;-64
2022/05/11 07:12:19;;;;;;;2.17;1.67;;;25.20;46.20;;;;;;5024949;28;20043;-63
2022/05/11 07:14:47;;;;;;;2.30;1.80;;;25.30;46.20;;;;;;5016821;28;20127;-63
2022/05/11 07:17:22;;;;;;;2.53;1.98;;;25.30;46.30;;;;;;5022182;28;20124;-62
2022/05/11 07:19:48;;;;;;;2.22;1.70;;;25.30;46.30;;;;;;5021883;28;20025;-60
2022/05/11 07:22:13;;;;;;;3.22;1.88;;;25.30;46.30;;;;;;5023176;28;20043;-63
2022/05/11 07:24:42;;;;;;;2.63;1.75;;;25.40;46.40;;;;;;5024931;28;20029;-63
2022/05/11 07:27:08;;;;;;;2.30;1.60;;;25.30;46.30;;;;;;5022796;28;20468;-62
2022/05/11 07:29:39;;;;;;;2.33;1.60;;;25.40;46.30;;;;;;5020823;28;20033;-62
2022/05/11 07:32:06;;;;;;;2.20;1.50;;;25.30;46.30;;;;;;5023649;28;20029;-64
2022/05/11 07:34:31;;;;;;;2.40;1.70;;;25.40;46.40;;;;;;5017086;28;20132;-60
2022/05/11 07:36:57;;;;;;;2.20;1.67;;;25.30;46.30;;;;;;5020454;28;20506;-63
2022/05/11 07:39:23;;;;;;;3.20;1.80;;;25.30;46.40;;;;;;5018693;28;20036;-63
2022/05/11 07:41:50;;;;;;;2.20;1.70;;;25.40;46.50;;;;;;5020480;28;20410;-64
2022/05/11 07:44:16;;;;;;;2.30;1.77;;;25.40;46.40;;;;;;5018221;28;20029;-62
2022/05/11 07:46:45;;;;;;;2.20;1.55;;;25.40;46.40;;;;;;5020113;28;20393;-63
2022/05/11 07:49:11;;;;;;;2.67;1.90;;;25.40;46.40;;;;;;5017092;28;20059;-63
2022/05/11 07:51:37;;;;;;;2.33;1.83;;;25.40;46.40;;;;;;5019518;28;20033;-59
2022/05/11 07:54:04;;;;;;;2.40;1.80;;;25.40;46.40;;;;;;5021488;28;20071;-62
2022/05/11 08:01:59;;;;;;;1.85;1.60;;;25.40;46.30;;;;;;5021379;28;20039;-59
2022/05/11 08:04:25;;;;;;;2.50;1.90;;;25.40;46.30;;;;;;5019230;28;20028;-63
2022/05/11 08:06:50;;;;;;;2.47;1.80;;;25.40;46.30;;;;;;5019643;28;20035;-61
2022/05/11 08:09:16;;;;;;;2.20;1.63;;;25.40;46.30;;;;;;5019897;28;20029;-61
2022/05/11 08:11:42;;;;;;;1.90;1.60;;;25.40;46.20;;;;;;5022015;28;20083;-63
2022/05/11 08:14:08;;;;;;;2.38;1.63;;;25.40;46.20;;;;;;5021030;28;20052;-62
2022/05/11 08:16:33;;;;;;;2.45;1.80;;;25.40;46.20;;;;;;5018100;28;20497;-61
2022/05/11 08:18:59;;;;;;;2.53;1.70;;;25.40;46.20;;;;;;5019127;28;20590;-62
2022/05/11 08:21:25;;;;;;;2.72;1.92;;;25.50;46.30;;;;;;5017243;28;20060;-61
2022/05/11 08:23:51;;;;;;;2.45;1.65;;;25.50;46.30;;;;;;5019445;28;20152;-62
2022/05/11 08:26:16;;;;;;;2.42;1.83;;;25.50;46.20;;;;;;5016533;28;20373;-62
2022/05/11 08:28:42;;;;;;;2.40;1.70;;;25.50;46.30;;;;;;5018262;28;20040;-63
2022/05/11 08:33:52;;;;;;;2.30;1.85;;;25.50;46.30;;;;;;5017564;28;20342;-64
2022/05/11 08:36:21;;;;;;;2.15;1.65;;;25.50;46.30;;;;;;5018398;28;20017;-64
2022/05/11 08:38:50;;;;;;;2.45;1.70;;;25.50;46.30;;;;;;5018811;28;20033;-62
2022/05/11 08:41:28;;;;;;;2.15;1.60;;;25.50;46.30;;;;;;5021372;28;20069;-62
2022/05/11 08:44:02;;;;;;;2.53;1.75;;;25.50;46.30;;;;;;5021620;28;20040;-63
2022/05/11 08:47:09;;;;;;;3.08;1.85;;;25.60;46.40;;;;;;5017360;28;20042;-61
2022/05/11 08:49:43;;;;;;;2.53;1.70;;;25.50;46.30;;;;;;4945172;28;20042;-62
2022/05/11 08:52:29;;;;;;;2.22;1.70;;;25.60;46.30;;;;;;5014773;28;20077;-60
2022/05/11 08:55:14;;;;;;;3.05;1.70;;;25.60;46.30;;;;;;5013474;28;20041;-64
2022/05/11 08:57:41;;;;;;;2.40;1.90;;;25.60;46.40;;;;;;5021164;28;20184;-62
2022/05/11 09:00:10;;;;;;;2.45;1.70;;;25.60;46.40;;;;;;5020008;28;20025;-63
2022/05/11 09:02:49;;;;;;;2.43;1.80;;;25.60;46.80;;;;;;5020695;28;20492;-62
2022/05/11 09:05:17;;;;;;;3.08;1.80;;;25.60;46.20;;;;;;5022836;28;20280;-63
2022/05/11 09:07:45;;;;;;;2.30;1.60;;;25.60;46.20;;;;;;5021259;28;20175;-64
2022/05/11 09:10:19;;;;;;;2.65;1.80;;;25.60;46.10;;;;;;5024222;28;20033;-62
2022/05/11 09:12:45;;;;;;;2.53;1.70;;;25.70;46.20;;;;;;5022045;28;20041;-60
2022/05/11 09:15:10;;;;;;;2.15;1.70;;;25.60;46.20;;;;;;5023311;28;20508;-62
2022/05/11 09:17:40;;;;;;;2.13;1.50;;;25.60;46.10;;;;;;5022317;28;20033;-63
2022/05/11 09:20:13;;;;;;;2.10;1.60;;;25.60;46.10;;;;;;5020291;28;20024;-63
2022/05/11 09:22:42;;;;;;;2.30;1.80;;;25.70;46.20;;;;;;5020619;28;20068;-64
2022/05/11 09:25:24;;;;;;;2.60;1.85;;;25.70;46.20;;;;;;5023346;28;20033;-61
2022/05/11 09:27:50;;;;;;;3.30;1.77;;;25.70;46.20;;;;;;5021960;28;20045;-63
2022/05/11 09:30:20;;;;;;;1.85;1.60;;;25.70;46.20;;;;;;5021439;28;20033;-63
2022/05/11 09:32:47;;;;;;;2.20;1.90;;;25.70;46.30;;;;;;5019335;28;20052;-61
2022/05/11 09:35:17;;;;;;;2.03;1.60;;;25.70;46.20;;;;;;5021803;28;20018;-63
2022/05/11 09:37:44;;;;;;;2.47;1.80;;;25.70;46.30;;;;;;5022256;28;20084;-63
2022/05/11 09:40:20;;;;;;;2.28;1.77;;;25.70;46.20;;;;;;5020322;28;20030;-61
2022/05/11 09:42:54;;;;;;;1.98;1.60;;;25.70;46.50;;;;;;5022277;28;20033;-63
2022/05/11 09:45:41;;;;;;;1.92;1.52;;;25.70;46.20;;;;;;5018466;28;20099;-59
2022/05/11 09:48:30;;;;;;;2.10;1.60;;;25.70;46.20;;;;;;5021805;28;20517;-63
2022/05/11 09:51:17;;;;;;;2.10;1.70;;;25.70;46.10;;;;;;5020596;28;20025;-62
2022/05/11 09:53:53;;;;;;;2.28;1.70;;;25.70;46.10;;;;;;5020743;28;20069;-63
2022/05/11 09:56:28;;;;;;;2.20;1.77;;;25.70;46.10;;;;;;5022303;28;20064;-63
2022/05/11 09:58:54;;;;;;;2.40;1.90;;;25.70;46.10;;;;;;5022963;28;20091;-63
2022/05/11 10:01:27;;;;;;;2.70;1.80;;;25.70;46.10;;;;;;5020643;28;20033;-64
2022/05/11 10:03:59;;;;;;;2.63;1.80;;;25.70;46.10;;;;;;5018855;28;20501;-60
2022/05/11 10:06:27;;;;;;;2.15;1.70;;;25.70;46.10;;;;;;5021737;28;20036;-62
2022/05/11 10:08:53;;;;;;;2.83;1.50;;;25.70;46.10;;;;;;5021334;28;20033;-63
2022/05/11 10:11:25;;;;;;;2.22;1.70;;;25.80;46.20;;;;;;5021227;28;20434;-63
2022/05/11 10:14:01;;;;;;;2.10;1.63;;;25.80;46.10;;;;;;5020580;28;20393;-62
2022/05/11 10:22:36;;;;;;;1.73;1.40;;;25.80;46.00;;;;;;5020261;28;20047;-63
2022/05/11 10:25:24;;;;;;;2.08;1.58;;;25.80;46.00;;;;;;5015210;28;20033;-62
2022/05/11 10:28:08;;;;;;;2.23;1.60;;;25.80;46.00;;;;;;5015521;28;20492;-63
2022/05/11 10:30:56;;;;;;;2.08;1.60;;;25.80;46.00;;;;;;5005074;28;20786;-63
2022/05/11 10:33:45;;;;;;;2.20;1.70;;;25.80;46.10;;;;;;5009806;28;20489;-62
2022/05/11 10:36:19;;;;;;;2.00;1.48;;;25.80;46.00;;;;;;5019976;28;20076;-63
2022/05/11 10:38:53;;;;;;;2.08;1.60;;;25.80;46.10;;;;;;5021044;28;20029;-62
2022/05/11 10:41:28;;;;;;;1.90;1.42;;;25.80;46.20;;;;;;5023133;28;20032;-60
2022/05/11 10:44:15;;;;;;;2.05;1.40;;;25.80;46.20;;;;;;5019714;28;20448;-60
2022/05/11 10:47:10;;;;;;;2.30;1.48;;;25.80;46.10;;;;;;5020677;28;20120;-62
2022/05/11 10:49:57;;;;;;;2.13;1.52;;;25.80;46.10;;;;;;5019183;28;20091;-59
2022/05/11 10:52:46;;;;;;;2.03;1.60;;;25.80;46.10;;;;;;5018742;28;20029;-64
2022/05/11 10:55:42;;;;;;;2.47;1.60;;;25.80;46.10;;;;;;5021032;28;20018;-63
2022/05/11 10:58:31;;;;;;;1.88;1.45;;;25.80;46.10;;;;;;5024078;28;20280;-63
2022/05/11 11:01:15;;;;;;;2.25;1.60;;;25.80;46.10;;;;;;5021466;28;20075;-59
2022/05/11 11:03:46;;;;;;;2.00;1.50;;;25.80;46.20;;;;;;5020957;28;20083;-62
2022/05/11 11:09:28;;;;;;;2.03;1.50;;;25.80;46.10;;;;;;5020410;28;20072;-62
2022/05/11 11:11:53;;;;;;;2.40;1.50;;;25.80;46.10;;;;;;5020761;28;20056;-62
2022/05/11 11:14:29;;;;;;;1.70;1.20;;;25.90;46.20;;;;;;5023116;28;20025;-58
2022/05/11 11:16:56;;;;;;;1.88;1.55;;;25.90;46.20;;;;;;5023051;28;20025;-59
2022/05/11 11:19:22;;;;;;;2.10;1.50;;;25.90;46.20;;;;;;5020932;28;20037;-63
2022/05/11 11:21:48;;;;;;;1.50;1.25;;;25.90;46.20;;;;;;5021941;28;20501;-61
2022/05/11 11:24:23;;;;;;;2.15;1.52;;;25.90;46.20;;;;;;5022430;28;20091;-63
2022/05/11 11:26:50;;;;;;;1.77;1.40;;;25.90;46.20;;;;;;5013287;28;20669;-63
2022/05/11 11:29:19;;;;;;;2.00;1.58;;;25.90;46.30;;;;;;5018676;28;20103;-62
2022/05/11 11:32:06;;;;;;;1.80;1.45;;;25.90;46.40;;;;;;5019210;28;20069;-61
2022/05/11 11:34:35;;;;;;;1.50;1.33;;;25.90;46.40;;;;;;5019155;28;20086;-64
2022/05/11 11:37:20;;;;;;;;;;;25.90;46.30;;;;;;5021506;28;20040;-60
2022/05/11 11:39:53;;;;;;;1.58;1.20;;;25.90;46.40;;;;;;5020519;28;19955;-64
2022/05/11 11:42:40;;;;;;;1.80;1.40;;;25.90;46.60;;;;;;5018918;28;20075;-62
2022/05/11 11:45:10;;;;;;;2.00;1.42;;;25.90;46.70;;;;;;5019032;28;20123;-64
2022/05/11 11:47:40;;;;;;;2.03;1.45;;;26.00;46.70;;;;;;5018764;28;20033;-63
2022/05/11 11:50:11;;;;;;;2.05;1.50;;;26.00;46.70;;;;;;5020261;28;20378;-63
2022/05/11 11:52:44;;;;;;;2.17;1.40;;;26.00;46.70;;;;;;5018204;28;20493;-65
2022/05/11 11:55:18;;;;;;;1.60;1.40;;;26.00;46.60;;;;;;5018960;28;20029;-63
2022/05/11 11:57:48;;;;;;;1.85;1.40;;;26.00;46.70;;;;;;5020029;28;20117;-63
2022/05/11 12:00:28;;;;;;;1.77;1.40;;;26.00;46.60;;;;;;5018439;28;20032;-64
2022/05/11 12:02:55;;;;;;;2.17;1.30;;;26.00;46.60;;;;;;5015900;28;20120;-62
2022/05/11 12:05:32;;;;;;;2.05;1.30;;;26.00;46.90;;;;;;5017089;28;20025;-62
2022/05/11 12:16:58;;;;;;;1.77;1.40;;;26.10;46.80;;;;;;5019102;28;20168;-63
2022/05/11 12:19:34;;;;;;;1.73;1.40;;;26.10;47.30;;;;;;5014391;28;20558;-61
2022/05/11 12:22:19;;;;;;;1.85;1.30;;;26.10;46.80;;;;;;5019320;28;20037;-60
2022/05/11 12:24:57;;;;;;;1.92;1.50;;;26.10;46.80;;;;;;5018279;28;20503;-62
2022/05/11 12:27:35;;;;;;;1.58;1.25;;;26.10;47.00;;;;;;5017678;28;20079;-64
2022/05/11 12:30:07;;;;;;;1.73;1.40;;;26.10;46.90;;;;;;5017133;28;20098;-63
2022/05/11 12:32:35;;;;;;;1.70;1.20;;;26.10;46.70;;;;;;5010875;28;20144;-65
2022/05/11 12:35:18;;;;;;;1.75;1.40;;;26.10;46.80;;;;;;5019403;28;20069;-63
2022/05/11 12:37:52;;;;;;;1.73;1.40;;;26.20;46.80;;;;;;5019498;28;20034;-64
2022/05/11 12:40:21;;;;;;;1.90;1.25;;;26.20;46.80;;;;;;5016623;28;20111;-60
2022/05/11 12:42:53;;;;;;;2.05;1.30;;;26.20;46.90;;;;;;5017909;28;20033;-64
2022/05/11 12:45:45;;;;;;;1.77;1.20;;;26.20;46.80;;;;;;5018420;28;20033;-64
2022/05/11 12:48:22;;;;;;;1.90;1.20;;;26.20;46.90;;;;;;5012518;28;20065;-63
2022/05/11 12:51:15;;;;;;;1.70;1.20;;;26.20;47.40;;;;;;5017549;28;20033;-60
2022/05/11 12:53:53;;;;;;;2.30;1.40;;;26.20;46.80;;;;;;5016455;28;20045;-60
2022/05/11 12:56:27;;;;;;;1.50;1.30;;;26.20;46.80;;;;;;5015816;28;20052;-63
2022/05/11 12:58:59;;;;;;;1.70;1.20;;;26.30;46.90;;;;;;5016894;28;20018;-63
2022/05/11 13:01:29;;;;;;;1.60;1.35;;;26.30;46.90;;;;;;5016488;28;20042;-60
2022/05/11 13:04:00;;;;;;;1.60;1.38;;;26.30;46.90;;;;;;5019183;28;20124;-63
2022/05/11 13:06:43;;;;;;;1.70;1.23;;;26.30;46.90;;;;;;5017841;28;20037;-63
2022/05/11 13:09:41;;;;;;;1.67;1.38;;;26.30;46.80;;;;;;5016180;28;20385;-63
2022/05/11 13:12:11;;;;;;;1.30;1.10;;;26.30;46.80;;;;;;5010085;28;20128;-64
2022/05/11 13:14:44;;;;;;;1.42;1.20;;;26.30;46.80;;;;;;5015254;28;20307;-63
2022/05/11 13:17:21;;;;;;;2.17;1.50;;;26.30;46.80;;;;;;5015936;28;20026;-62
2022/05/11 13:20:06;;;;;;;1.73;1.30;;;26.30;46.80;;;;;;5015982;28;20348;-61
2022/05/11 13:22:32;;;;;;;1.75;1.30;;;26.30;46.80;;;;;;5016923;28;20040;-63
2022/05/11 13:25:06;;;;;;;1.65;1.20;;;26.30;46.80;;;;;;5017043;28;20337;-63
2022/05/11 13:27:39;;;;;;;1.50;1.20;;;26.30;46.80;;;;;;5020974;28;20481;-62
2022/05/11 13:30:29;;;;;;;1.33;1.15;;;26.30;46.80;;;;;;5023019;28;20038;-64
2022/05/11 13:32:58;;;;;;;1.50;1.20;;;26.30;46.90;;;;;;5018713;28;20046;-64
2022/05/11 13:35:30;;;;;;;1.90;1.35;;;26.30;46.90;;;;;;5025529;28;20863;-63
2022/05/11 13:37:57;;;;;;;1.80;1.20;;;26.30;46.90;;;;;;5024601;28;20053;-64
2022/05/11 13:40:38;;;;;;;1.60;1.20;;;26.40;46.90;;;;;;5032097;28;20406;-63
2022/05/11 13:43:31;;;;;;;1.80;1.20;;;26.40;46.90;;;;;;5028707;28;20029;-64
2022/05/11 13:46:01;;;;;;;1.63;1.27;;;26.40;46.90;;;;;;5024501;28;20667;-63
2022/05/11 13:48:44;;;;;;;1.63;1.20;;;26.40;46.90;;;;;;5030375;28;20106;-64